Aiki — WDH3301 — position and weather

sailwx.info

Track history (hours):
 
Tides and Currents Weather Stations Pressure Air Temp Water Temp Dewpoint Dewpoint Depression Visibility Wind Speed Wind Dir Waves Ship Positions

Aiki

Owner: Stevens, Guy L, ALAMEDA, CA. More information available from US FCC via Universal Licensing System and Coast Guard Vessel Documentation Center.

Last reported at 2017-Dec-09 23:09 UTC. Time now 2017-Dec-14 13:17 UTC.
Position N 34°10' W 119°13'.

Length 14 m.

Type: Sailing vessel. MMSI: 367606330.

Date/timePositionNaut miles runAvg speedWind from/ knotsBaromVisibWave heightAir tempDewpointWater temp
2017-Dec-09 23:09N 34°10' W 119°13'0 2.5
2017-Dec-09 22:57N 34°09' W 119°14'2 3.5
2017-Dec-09 22:29N 34°10' W 119°16'2 3.9
2017-Dec-09 22:00N 34°11' W 119°18'2 3.8
2017-Dec-09 21:31N 34°12' W 119°20'2 2.5
2017-Dec-09 20:50N 34°10' W 119°21'1 3.1
2017-Dec-09 20:31N 34°11' W 119°22'1 2.0
2017-Dec-09 19:58N 34°11' W 119°23'2 3.2
2017-Dec-09 19:24N 34°13' W 119°24'3 5.0
2017-Dec-09 18:52N 34°14' W 119°27'2 5.5
2017-Dec-09 18:30N 34°15' W 119°29'4 5.9
2017-Dec-09 17:53N 34°17' W 119°33'2 5.8
2017-Dec-09 17:29N 34°18' W 119°35'4 5.8
2017-Dec-09 16:52N 34°19' W 119°39'3 5.7
2017-Dec-09 16:21N 34°20' W 119°43'3 5.7
2017-Dec-09 15:52N 34°22' W 119°46'2 5.6
2017-Dec-09 15:30N 34°22' W 119°48'3 5.1
2017-Dec-09 14:57N 34°22' W 119°51'3 5.2
2017-Dec-09 14:26N 34°23' W 119°55'2 5.2
2017-Dec-09 14:00N 34°23' W 119°57'3 5.3
2017-Dec-09 13:30N 34°23' W 120°01'3 5.1
2017-Dec-09 12:57N 34°24' W 120°04'2 4.9
2017-Dec-09 12:29N 34°24' W 120°07'3 4.9
2017-Dec-09 11:49N 34°23' W 120°10'2 5.0
2017-Dec-09 11:30N 34°23' W 120°12'3 5.1
2017-Dec-09 10:54N 34°24' W 120°16'2 5.0
2017-Dec-09 10:30N 34°24' W 120°18'3 5.2
2017-Dec-09 09:57N 34°23' W 120°22'3 5.2
2017-Dec-09 09:24N 34°23' W 120°25'2 5.2
2017-Dec-09 08:57N 34°23' W 120°28'2 5.3
2017-Dec-09 08:30N 34°24' W 120°31'3 5.5
2017-Dec-09 07:58N 34°26' W 120°33'3 5.4
2017-Dec-09 07:30N 34°28' W 120°36'3 5.6
2017-Dec-09 07:00N 34°29' W 120°38'3 5.6
2017-Dec-09 06:31N 34°31' W 120°40'3 5.6
2017-Dec-09 06:00N 34°33' W 120°43'3 5.4
2017-Dec-09 05:25N 34°36' W 120°45'3 5.2
2017-Dec-09 04:56N 34°38' W 120°47'2 5.2
2017-Dec-09 04:31N 34°40' W 120°48'3 5.3
2017-Dec-09 04:00N 34°43' W 120°48'3 5.4
2017-Dec-09 03:30N 34°46' W 120°49'3 5.7
2017-Dec-09 03:01N 34°48' W 120°49'3 5.9
2017-Dec-09 02:31N 34°51' W 120°49'3 5.8
2017-Dec-09 02:01N 34°54' W 120°50'3 5.7
2017-Dec-09 01:31N 34°57' W 120°50'3 5.0
2017-Dec-09 01:00N 34°59' W 120°51'7 4.8
2017-Dec-08 23:35N 35°06' W 120°53'0 5.0
2017-Dec-08 23:31N 35°06' W 120°53'3 5.2
2017-Dec-08 23:00N 35°09' W 120°54'6 5.7
2017-Dec-08 22:01N 35°14' W 120°55'  
Track history (hours):
 
Tides and Currents Weather Stations Pressure Air Temp Water Temp Dewpoint Dewpoint Depression Visibility Wind Speed Wind Dir Waves Ship Positions

Aiki

Owner: Stevens, Guy L, ALAMEDA, CA. More information available from US FCC via Universal Licensing System and Coast Guard Vessel Documentation Center.

Last reported at 2017-Dec-09 23:09 UTC. Time now 2017-Dec-14 13:17 UTC.
Position N 34°10' W 119°13'.

Length 14 m.

Type: Sailing vessel. MMSI: 367606330.

Date/timePositionNaut miles runAvg speedWind from/ knotsBaromVisibWave heightAir tempDewpointWater temp
2017-Dec-09 23:09N 34°10' W 119°13'0 2.5
2017-Dec-09 22:57N 34°09' W 119°14'2 3.5
2017-Dec-09 22:29N 34°10' W 119°16'2 3.9
2017-Dec-09 22:00N 34°11' W 119°18'2 3.8
2017-Dec-09 21:31N 34°12' W 119°20'2 2.5
2017-Dec-09 20:50N 34°10' W 119°21'1 3.1
2017-Dec-09 20:31N 34°11' W 119°22'1 2.0
2017-Dec-09 19:58N 34°11' W 119°23'2 3.2
2017-Dec-09 19:24N 34°13' W 119°24'3 5.0
2017-Dec-09 18:52N 34°14' W 119°27'2 5.5
2017-Dec-09 18:30N 34°15' W 119°29'4 5.9
2017-Dec-09 17:53N 34°17' W 119°33'2 5.8
2017-Dec-09 17:29N 34°18' W 119°35'4 5.8
2017-Dec-09 16:52N 34°19' W 119°39'3 5.7
2017-Dec-09 16:21N 34°20' W 119°43'3 5.7
2017-Dec-09 15:52N 34°22' W 119°46'2 5.6
2017-Dec-09 15:30N 34°22' W 119°48'3 5.1
2017-Dec-09 14:57N 34°22' W 119°51'3 5.2
2017-Dec-09 14:26N 34°23' W 119°55'2 5.2
2017-Dec-09 14:00N 34°23' W 119°57'3 5.3
2017-Dec-09 13:30N 34°23' W 120°01'3 5.1
2017-Dec-09 12:57N 34°24' W 120°04'2 4.9
2017-Dec-09 12:29N 34°24' W 120°07'3 4.9
2017-Dec-09 11:49N 34°23' W 120°10'2 5.0
2017-Dec-09 11:30N 34°23' W 120°12'3 5.1
2017-Dec-09 10:54N 34°24' W 120°16'2 5.0
2017-Dec-09 10:30N 34°24' W 120°18'3 5.2
2017-Dec-09 09:57N 34°23' W 120°22'3 5.2
2017-Dec-09 09:24N 34°23' W 120°25'2 5.2
2017-Dec-09 08:57N 34°23' W 120°28'2 5.3
2017-Dec-09 08:30N 34°24' W 120°31'3 5.5
2017-Dec-09 07:58N 34°26' W 120°33'3 5.4
2017-Dec-09 07:30N 34°28' W 120°36'3 5.6
2017-Dec-09 07:00N 34°29' W 120°38'3 5.6
2017-Dec-09 06:31N 34°31' W 120°40'3 5.6
2017-Dec-09 06:00N 34°33' W 120°43'3 5.4
2017-Dec-09 05:25N 34°36' W 120°45'3 5.2
2017-Dec-09 04:56N 34°38' W 120°47'2 5.2
2017-Dec-09 04:31N 34°40' W 120°48'3 5.3
2017-Dec-09 04:00N 34°43' W 120°48'3 5.4
2017-Dec-09 03:30N 34°46' W 120°49'3 5.7
2017-Dec-09 03:01N 34°48' W 120°49'3 5.9
2017-Dec-09 02:31N 34°51' W 120°49'3 5.8
2017-Dec-09 02:01N 34°54' W 120°50'3 5.7
2017-Dec-09 01:31N 34°57' W 120°50'3 5.0
2017-Dec-09 01:00N 34°59' W 120°51'7 4.8
2017-Dec-08 23:35N 35°06' W 120°53'0 5.0
2017-Dec-08 23:31N 35°06' W 120°53'3 5.2
2017-Dec-08 23:00N 35°09' W 120°54'6 5.7
2017-Dec-08 22:01N 35°14' W 120°55'  

Dump ship's entire track history